Terminal Aerodrome Forecast
Issued by NWS

Home | Current Version | Previous Version | Text Only | Print | Product List | Glossary On
Versions: 1 2 3 4 5 6 7 8 9 10 11 12 13 14
000
FTUS45 KFGZ 180500
TAFSEZ
TAF
KSEZ 180520Z 1806/1906 06006KT P6SM SCT110
     FM181800 VRB06KT P6SM VCSH BKN050 OVC080
      TEMPO 1819/1823 3SM TSRA BKN030CB
     FM190200 05006KT P6SM FEW070=

USA.gov is the U.S. government's official web portal to all federal, state and local government web resources and services.